Time;durP1;ratioP1;P1;durP2;ratioP2;P2;SDS_P1;SDS_P2;PMS_P1;PMS_P2;Temp;Humidity;BMP_temperature;BMP_pressure;BME280_temperature;BME280_humidity;BME280_pressure;Samples;Min_cycle;Max_cycle;Signal;HPM_P1;HPM_P2
2024/01/18 00:01:47;;;;;;;72.47;31.70;;;;;;;5.74;88.76;99376.19;4943172;28;20802;-83
2024/01/18 00:04:19;;;;;;;66.15;34.42;;;;;;;5.79;89.17;99342.38;4971149;28;20483;-80
2024/01/18 00:06:46;;;;;;;59.50;31.85;;;;;;;5.85;88.58;99332.25;4955945;28;20136;-80
2024/01/18 00:09:14;;;;;;;70.68;34.00;;;;;;;5.80;89.25;99306.31;4951831;28;20055;-80
2024/01/18 00:11:50;;;;;;;70.47;33.70;;;;;;;5.75;88.49;99282.22;4947984;28;20232;-80
2024/01/18 00:14:17;;;;;;;62.67;32.25;;;;;;;5.68;89.00;99305.66;4955984;28;20194;-80
2024/01/18 00:16:44;;;;;;;72.13;36.58;;;;;;;5.73;89.19;99311.34;4946589;28;20512;-81
2024/01/18 00:19:19;;;;;;;63.97;32.75;;;;;;;5.74;88.94;99328.78;4959997;28;20041;-81
2024/01/18 00:21:51;;;;;;;65.22;31.60;;;;;;;5.61;88.95;99301.03;4992886;28;20087;-80
2024/01/18 00:24:22;;;;;;;65.97;32.80;;;;;;;5.72;88.81;99301.75;4944301;28;20131;-82
2024/01/18 00:26:51;;;;;;;67.75;33.60;;;;;;;5.86;88.64;99308.44;4941942;28;20055;-81
2024/01/18 00:29:18;;;;;;;62.47;29.77;;;;;;;5.79;88.96;99294.97;4946458;28;20406;-82
2024/01/18 00:31:49;;;;;;;55.10;27.90;;;;;;;5.74;89.03;99296.38;4940291;28;20055;-83
2024/01/18 00:34:16;;;;;;;63.70;30.13;;;;;;;5.89;89.22;99309.94;4938419;28;20076;-83
2024/01/18 00:36:46;;;;;;;54.25;25.70;;;;;;;5.76;88.63;99278.63;4944380;28;20473;-81
2024/01/18 00:39:20;;;;;;;47.38;25.05;;;;;;;5.65;89.10;99255.88;4918464;28;20050;-83
2024/01/18 00:41:50;;;;;;;47.33;25.02;;;;;;;5.84;89.37;99285.84;4952429;28;20049;-83
2024/01/18 00:44:21;;;;;;;40.63;22.85;;;;;;;5.80;89.76;99295.78;4937400;28;20524;-83
2024/01/18 00:46:51;;;;;;;51.95;25.38;;;;;;;5.67;89.58;99280.28;4921078;28;20125;-83
2024/01/18 00:49:21;;;;;;;48.40;26.38;;;;;;;5.64;89.49;99267.38;4939002;28;20611;-80
2024/01/18 00:51:51;;;;;;;45.70;25.10;;;;;;;5.73;89.84;99284.19;4938562;28;20455;-81
2024/01/18 00:54:17;;;;;;;53.13;26.63;;;;;;;5.72;89.67;99282.50;4941956;28;20698;-79
2024/01/18 00:56:53;;;;;;;53.45;28.42;;;;;;;5.65;90.03;99279.56;4939766;28;20049;-82
2024/01/18 00:59:24;;;;;;;52.78;25.58;;;;;;;5.70;90.20;99272.09;4954572;28;20528;-80
2024/01/18 01:01:54;;;;;;;53.03;27.58;;;;;;;5.72;90.19;99271.97;4921237;28;20058;-79
2024/01/18 01:04:23;;;;;;;49.30;25.90;;;;;;;5.47;89.87;99226.78;4935816;28;20049;-82
2024/01/18 01:06:50;;;;;;;55.05;27.52;;;;;;;5.72;90.18;99264.06;4956078;28;20238;-82
2024/01/18 01:09:17;;;;;;;53.83;27.98;;;;;;;4.87;89.94;99134.75;4955761;28;20086;-80
2024/01/18 01:11:43;;;;;;;57.00;28.52;;;;;;;5.78;89.57;99251.19;4940290;28;20104;-81
2024/01/18 01:14:10;;;;;;;52.25;27.98;;;;;;;5.72;89.33;99270.16;4928083;28;20214;-80
2024/01/18 01:16:37;;;;;;;53.20;28.17;;;;;;;5.64;88.95;99266.56;4946289;28;20136;-79
2024/01/18 01:19:04;;;;;;;54.53;28.13;;;;;;;5.50;89.00;99247.56;4961229;28;20488;-80
2024/01/18 01:21:37;;;;;;;62.85;29.65;;;;;;;5.66;89.27;99283.88;4953902;28;20075;-81
2024/01/18 01:24:07;;;;;;;55.78;28.88;;;;;;;5.66;89.06;99293.59;4972384;28;20877;-83
2024/01/18 01:26:34;;;;;;;64.68;29.10;;;;;;;5.45;89.25;99243.69;4960506;28;20900;-80
2024/01/18 01:29:01;;;;;;;58.08;27.95;;;;;;;5.82;88.21;99304.41;4975252;28;20362;-81
2024/01/18 01:31:28;;;;;;;58.65;30.67;;;;;;;5.75;88.47;99292.75;4959200;28;20045;-81
2024/01/18 01:33:59;;;;;;;59.45;30.88;;;;;;;5.69;88.53;99299.41;4944732;28;20566;-81
2024/01/18 01:36:31;;;;;;;67.13;32.05;;;;;;;5.69;88.88;99304.66;4939692;28;20468;-81
2024/01/18 01:39:03;;;;;;;73.00;32.88;;;;;;;5.58;89.36;99296.88;4922752;28;20748;-81
2024/01/18 01:41:31;;;;;;;71.57;32.20;;;;;;;5.60;89.94;99283.59;4939607;28;20045;-80
2024/01/18 01:44:04;;;;;;;71.65;33.75;;;;;;;5.57;89.72;99311.84;4938772;28;20354;-82
2024/01/18 01:46:34;;;;;;;72.03;32.80;;;;;;;5.55;89.78;99312.97;4957748;28;20086;-79
2024/01/18 01:49:05;;;;;;;63.20;31.58;;;;;;;5.35;89.71;99297.13;4960183;28;20045;-81
2024/01/18 01:51:38;;;;;;;62.88;31.00;;;;;;;5.47;90.43;99341.78;4966812;28;20355;-80
2024/01/18 01:54:06;;;;;;;72.70;33.28;;;;;;;5.23;91.07;99294.75;4931321;28;20053;-82
2024/01/18 01:56:38;;;;;;;67.07;32.85;;;;;;;5.51;90.58;99322.94;4963741;28;20102;-81
2024/01/18 01:59:09;;;;;;;73.47;32.90;;;;;;;5.32;90.93;99292.13;4957650;28;20148;-80
2024/01/18 02:01:37;;;;;;;60.42;31.85;;;;;;;5.48;90.46;99320.56;4964668;28;20383;-81
2024/01/18 02:04:11;;;;;;;71.60;32.22;;;;;;;5.49;90.02;99345.09;4956382;28;20438;-81
2024/01/18 02:06:45;;;;;;;60.15;32.13;;;;;;;5.41;89.49;99321.25;4950231;28;20367;-82
2024/01/18 02:09:13;;;;;;;58.97;29.10;;;;;;;4.89;90.31;99269.56;4951148;28;20046;-82
2024/01/18 02:11:43;;;;;;;58.90;31.67;;;;;;;5.46;89.64;99351.47;4944808;28;20607;-81
2024/01/18 02:14:11;;;;;;;54.33;30.60;;;;;;;5.43;89.53;99343.00;4944964;28;20109;-78
2024/01/18 02:16:38;;;;;;;57.55;30.73;;;;;;;5.43;90.15;99346.44;4930346;28;20309;-81
2024/01/18 02:19:05;;;;;;;52.38;31.00;;;;;;;5.40;90.47;99341.47;4919798;28;20550;-80
2024/01/18 02:21:36;;;;;;;49.92;29.85;;;;;;;4.91;90.90;99275.53;4936731;28;20447;-80
2024/01/18 02:24:08;;;;;;;55.65;29.70;;;;;;;5.41;90.73;99342.28;4928926;28;20104;-80
2024/01/18 02:26:39;;;;;;;51.58;30.27;;;;;;;5.03;90.67;99292.06;4968770;28;20041;-80
2024/01/18 02:29:07;;;;;;;;;;;;;;;5.44;90.80;99358.66;4971229;28;20260;-80
2024/01/18 02:31:38;;;;;;;51.63;28.35;;;;;;;5.33;91.61;99343.78;4938683;28;19933;-80
2024/01/18 02:34:10;;;;;;;51.33;30.80;;;;;;;5.01;91.52;99287.88;4925608;28;20066;-78
2024/01/18 02:36:37;;;;;;;51.72;28.65;;;;;;;4.95;91.52;99298.94;4959618;28;20434;-79
2024/01/18 02:39:16;;;;;;;48.70;27.40;;;;;;;5.27;90.94;99330.34;4973029;28;20141;-80
2024/01/18 02:41:49;;;;;;;46.08;24.77;;;;;;;5.40;90.60;99335.38;4954925;28;20050;-80
2024/01/18 02:44:20;;;;;;;45.47;25.08;;;;;;;5.53;89.92;99354.38;4965102;28;20037;-79
2024/01/18 02:46:51;;;;;;;48.47;25.30;;;;;;;5.48;90.44;99360.03;4924871;28;20057;-81
2024/01/18 02:49:18;;;;;;;48.08;25.75;;;;;;;5.27;91.01;99336.44;4929723;28;20046;-81
2024/01/18 02:51:45;;;;;;;51.13;25.80;;;;;;;5.31;90.77;99335.19;4962390;28;20395;-80
2024/01/18 02:54:12;;;;;;;72.97;32.42;;;;;;;5.39;90.68;99371.41;4947166;28;20361;-82
2024/01/18 02:56:40;;;;;;;76.35;35.10;;;;;;;5.40;90.46;99364.31;4930485;28;20080;-80
2024/01/18 02:59:18;;;;;;;82.47;36.83;;;;;;;5.32;90.65;99386.88;4934116;28;20440;-81
2024/01/18 03:01:53;;;;;;;81.72;40.70;;;;;;;5.30;90.24;99390.59;4923265;28;20087;-81
2024/01/18 03:04:19;;;;;;;81.28;41.15;;;;;;;5.09;89.79;99357.25;4964487;28;20399;-79
2024/01/18 03:06:46;;;;;;;86.85;41.28;;;;;;;4.83;89.93;99327.09;4955243;28;20041;-81
2024/01/18 03:09:18;;;;;;;83.55;41.95;;;;;;;5.04;90.25;99362.09;4962672;28;20575;-81
2024/01/18 03:11:50;;;;;;;82.70;41.95;;;;;;;4.88;90.29;99359.13;4971585;28;20049;-80
2024/01/18 03:14:20;;;;;;;87.05;42.92;;;;;;;5.11;90.46;99376.38;4974104;28;20053;-82
2024/01/18 03:16:47;;;;;;;76.72;42.03;;;;;;;5.09;90.51;99374.84;4964043;28;20068;-81
2024/01/18 03:19:14;;;;;;;80.20;43.08;;;;;;;4.91;90.08;99341.28;4967108;28;20314;-80
2024/01/18 03:21:41;;;;;;;77.72;41.90;;;;;;;5.29;89.93;99392.41;4949210;28;20268;-80
2024/01/18 03:24:09;;;;;;;70.20;39.33;;;;;;;5.26;89.24;99395.28;4953642;28;20049;-81
2024/01/18 03:26:39;;;;;;;75.22;41.45;;;;;;;5.21;88.98;99397.47;4943183;28;20244;-81
2024/01/18 03:29:08;;;;;;;75.88;40.50;;;;;;;5.16;89.06;99389.16;4966246;28;20415;-80
2024/01/18 03:31:35;;;;;;;77.22;42.47;;;;;;;4.70;88.42;99290.50;4964970;28;20055;-79
2024/01/18 03:34:16;;;;;;;64.40;39.90;;;;;;;5.21;88.76;99379.06;4949514;28;20846;-79
2024/01/18 03:36:53;;;;;;;63.78;39.70;;;;;;;5.17;88.53;99387.34;4950287;28;20660;-79
2024/01/18 03:39:27;;;;;;;69.22;39.78;;;;;;;5.07;87.94;99347.84;4963148;28;20255;-81
2024/01/18 03:41:54;;;;;;;65.50;39.60;;;;;;;5.06;88.10;99338.31;4984844;28;20045;-80
2024/01/18 03:44:22;;;;;;;70.43;41.30;;;;;;;5.17;87.30;99375.06;5004394;28;20052;-80
2024/01/18 03:46:49;;;;;;;68.03;41.15;;;;;;;5.21;87.57;99394.84;4985115;28;20042;-80
2024/01/18 03:49:16;;;;;;;70.18;42.25;;;;;;;5.28;88.09;99379.38;4939109;28;20262;-80
2024/01/18 03:51:48;;;;;;;68.28;40.75;;;;;;;5.28;87.74;99389.91;4965715;28;20061;-80
2024/01/18 03:54:22;;;;;;;66.13;40.92;;;;;;;5.19;87.69;99381.00;4944915;28;20606;-80
2024/01/18 03:56:49;;;;;;;71.05;42.92;;;;;;;5.25;87.70;99393.63;4969921;28;20046;-80
2024/01/18 03:59:16;;;;;;;69.07;44.00;;;;;;;5.17;87.79;99380.31;4962427;28;20050;-79
2024/01/18 04:01:45;;;;;;;73.22;44.97;;;;;;;5.16;87.99;99359.38;4955084;28;20062;-80
2024/01/18 04:04:13;;;;;;;70.18;44.05;;;;;;;5.05;87.72;99369.03;4997097;28;20088;-81
2024/01/18 04:06:43;;;;;;;70.43;43.00;;;;;;;5.05;88.64;99379.56;4981522;28;20064;-80
2024/01/18 04:09:10;;;;;;;69.45;41.90;;;;;;;5.24;89.16;99393.75;5012110;28;20924;-79
2024/01/18 04:11:37;;;;;;;67.53;40.85;;;;;;;5.17;89.39;99397.88;5029904;28;20047;-80
2024/01/18 04:14:07;;;;;;;63.75;39.75;;;;;;;4.92;89.02;99352.63;5004856;28;20049;-80
2024/01/18 04:16:35;;;;;;;64.90;38.92;;;;;;;5.18;89.87;99391.66;5006425;28;20495;-79
2024/01/18 04:19:01;;;;;;;53.03;34.30;;;;;;;5.21;88.75;99379.06;5000550;28;20125;-80
2024/01/18 04:21:29;;;;;;;59.45;35.60;;;;;;;5.29;88.82;99389.78;4984099;28;20141;-80
2024/01/18 04:23:56;;;;;;;56.55;34.78;;;;;;;5.26;88.55;99381.31;4984165;28;20274;-80
2024/01/18 04:26:24;;;;;;;51.65;33.10;;;;;;;5.30;88.82;99391.44;4983498;28;20055;-80
2024/01/18 04:28:51;;;;;;;48.30;29.98;;;;;;;5.22;88.70;99386.00;4969427;28;20080;-79
2024/01/18 04:31:18;;;;;;;44.35;27.40;;;;;;;5.39;88.87;99375.81;4984258;28;20137;-77
2024/01/18 04:33:45;;;;;;;47.58;28.08;;;;;;;5.15;87.99;99337.50;4982886;28;20144;-80
2024/01/18 04:36:12;;;;;;;39.83;25.02;;;;;;;4.99;88.18;99321.38;4986471;28;20116;-80
2024/01/18 04:38:42;;;;;;;39.10;25.45;;;;;;;5.50;86.21;99370.44;4993581;28;20277;-80
2024/01/18 04:41:09;;;;;;;36.30;23.50;;;;;;;5.22;86.59;99336.00;5006523;28;20273;-80
2024/01/18 04:43:39;;;;;;;29.40;21.30;;;;;;;5.26;86.82;99366.34;5017366;28;20084;-80
2024/01/18 04:46:05;;;;;;;32.47;20.55;;;;;;;5.32;87.14;99375.53;4999598;28;20418;-80
2024/01/18 04:48:32;;;;;;;29.20;19.75;;;;;;;5.19;87.10;99354.69;4986752;28;20515;-79
2024/01/18 04:50:59;;;;;;;31.58;19.13;;;;;;;4.86;87.51;99303.19;4981684;28;20077;-80
2024/01/18 04:53:26;;;;;;;26.92;17.88;;;;;;;5.23;87.17;99356.09;4986805;28;20053;-80
2024/01/18 04:55:53;;;;;;;23.80;17.77;;;;;;;5.08;86.93;99341.63;4985531;28;20511;-80
2024/01/18 04:58:21;;;;;;;19.15;16.25;;;;;;;5.17;86.56;99359.25;4987034;28;20128;-80
2024/01/18 05:00:51;;;;;;;21.77;16.20;;;;;;;5.12;86.23;99343.00;4980371;28;20056;-81
2024/01/18 05:03:19;;;;;;;23.25;15.90;;;;;;;5.06;86.36;99340.94;4986866;28;20493;-80
2024/01/18 05:05:46;;;;;;;21.92;16.13;;;;;;;5.16;87.03;99367.28;5002330;28;20407;-80
2024/01/18 05:08:16;;;;;;;22.35;16.40;;;;;;;5.16;86.66;99369.91;4991940;28;20745;-80
2024/01/18 05:10:42;;;;;;;21.50;15.77;;;;;;;4.78;86.84;99295.97;5005426;28;20416;-80
2024/01/18 05:13:09;;;;;;;21.20;16.83;;;;;;;4.97;86.57;99324.13;5010780;28;20549;-80
2024/01/18 05:15:36;;;;;;;22.23;17.02;;;;;;;5.07;86.93;99335.56;4978746;28;20448;-80
2024/01/18 05:18:03;;;;;;;23.95;17.38;;;;;;;4.98;86.61;99323.19;4980810;28;20809;-79
2024/01/18 05:20:30;;;;;;;20.67;16.27;;;;;;;5.17;86.27;99356.63;4980344;28;20077;-80
2024/01/18 05:22:57;;;;;;;24.10;17.13;;;;;;;4.98;86.27;99323.19;4968817;28;20143;-82
2024/01/18 05:25:24;;;;;;;22.75;16.63;;;;;;;5.19;85.86;99354.69;4978647;28;20514;-82
2024/01/18 05:27:51;;;;;;;24.23;17.05;;;;;;;4.89;86.07;99326.59;4998850;28;20049;-82
2024/01/18 05:30:20;;;;;;;23.00;17.35;;;;;;;5.14;86.15;99344.53;4976089;28;20042;-82
2024/01/18 05:32:48;;;;;;;26.00;17.17;;;;;;;5.04;86.49;99350.75;4984454;28;20055;-80
2024/01/18 05:35:18;;;;;;;21.30;16.73;;;;;;;4.58;86.62;99279.25;4993846;28;20370;-82
2024/01/18 05:37:45;;;;;;;22.98;17.65;;;;;;;5.05;86.08;99357.66;4991260;28;20056;-82
2024/01/18 05:40:12;;;;;;;23.40;16.85;;;;;;;4.58;86.35;99278.41;4999367;28;20435;-82
2024/01/18 05:42:41;;;;;;;21.98;17.35;;;;;;;4.67;86.28;99306.56;5021730;28;20412;-82
2024/01/18 05:45:08;;;;;;;21.38;16.13;;;;;;;5.01;86.08;99353.66;5025740;28;20532;-82
2024/01/18 05:47:39;;;;;;;23.08;17.55;;;;;;;4.96;86.35;99350.59;4978409;28;20136;-82
2024/01/18 05:50:08;;;;;;;21.15;15.90;;;;;;;4.92;86.21;99337.66;4978480;28;20096;-81
2024/01/18 05:52:36;;;;;;;23.60;17.45;;;;;;;4.87;86.80;99339.88;4960118;28;20243;-82
2024/01/18 05:55:04;;;;;;;23.52;16.58;;;;;;;4.72;86.60;99310.44;4979656;28;20366;-82
2024/01/18 05:57:37;;;;;;;20.17;16.23;;;;;;;4.94;86.81;99358.59;4983961;28;20342;-81
2024/01/18 06:00:06;;;;;;;22.65;17.15;;;;;;;4.86;86.99;99356.63;4958736;28;20064;-79
2024/01/18 06:02:33;;;;;;;21.92;16.33;;;;;;;4.88;87.09;99352.06;4981336;28;20542;-80
2024/01/18 06:05:03;;;;;;;24.70;18.75;;;;;;;4.74;87.09;99339.25;4985077;28;20835;-80
2024/01/18 06:07:30;;;;;;;19.00;14.88;;;;;;;4.74;86.53;99347.16;4974117;28;20091;-81
2024/01/18 06:09:59;;;;;;;19.30;15.43;;;;;;;4.82;86.87;99362.25;4997245;28;20049;-81
2024/01/18 06:12:26;;;;;;;19.42;15.73;;;;;;;4.99;86.17;99384.50;4994171;28;20396;-82
2024/01/18 06:14:53;;;;;;;19.55;15.35;;;;;;;5.02;85.83;99389.50;4983445;28;20128;-79
2024/01/18 06:17:19;;;;;;;19.88;15.32;;;;;;;4.96;86.10;99379.50;4987447;28;20476;-82
2024/01/18 06:19:50;;;;;;;21.80;15.82;;;;;;;4.99;86.14;99387.13;5008340;28;20045;-79
2024/01/18 06:22:17;;;;;;;22.52;14.65;;;;;;;5.02;85.96;99381.59;4995207;28;20049;-80
2024/01/18 06:24:44;;;;;;;20.58;15.18;;;;;;;5.08;85.17;99383.72;4997494;28;20072;-80
2024/01/18 06:27:11;;;;;;;18.05;14.55;;;;;;;4.89;85.19;99364.25;4967320;28;20616;-80
2024/01/18 06:29:38;;;;;;;18.20;14.93;;;;;;;4.81;85.16;99361.44;4987746;28;20053;-80
2024/01/18 06:32:05;;;;;;;19.65;15.57;;;;;;;4.97;85.43;99392.50;5007852;28;20049;-81
2024/01/18 06:34:33;;;;;;;19.75;15.05;;;;;;;4.99;85.58;99400.28;4983937;28;20415;-80
2024/01/18 06:37:00;;;;;;;21.13;15.32;;;;;;;4.95;85.37;99397.06;5005739;28;20518;-80
2024/01/18 06:39:30;;;;;;;21.27;14.63;;;;;;;4.78;85.35;99366.09;4981724;28;20049;-80
2024/01/18 06:41:57;;;;;;;16.35;14.52;;;;;;;4.89;85.55;99374.75;4971853;28;20085;-82
2024/01/18 06:44:23;;;;;;;20.15;15.00;;;;;;;5.00;85.31;99386.16;4994400;28;20081;-80
2024/01/18 06:46:50;;;;;;;17.40;14.35;;;;;;;4.80;84.94;99349.25;4990851;28;20046;-79
2024/01/18 06:49:17;;;;;;;19.02;14.10;;;;;;;4.76;84.93;99358.38;4964719;28;20515;-80
2024/01/18 06:51:44;;;;;;;18.48;14.20;;;;;;;4.92;85.12;99379.75;4976663;28;20124;-78
2024/01/18 06:54:11;;;;;;;15.95;14.23;;;;;;;4.81;84.68;99356.19;4989420;28;20083;-81
2024/01/18 06:56:47;;;;;;;20.13;14.93;;;;;;;4.79;84.61;99363.34;4986199;28;20574;-81
2024/01/18 06:59:15;;;;;;;18.65;13.95;;;;;;;4.78;84.71;99351.19;4979051;28;20049;-80
2024/01/18 07:01:44;;;;;;;18.67;14.00;;;;;;;4.15;85.07;99247.88;4988771;28;20377;-79
2024/01/18 07:04:11;;;;;;;17.90;13.57;;;;;;;4.66;85.32;99349.56;4980795;28;20057;-81
2024/01/18 07:06:48;;;;;;;21.00;14.35;;;;;;;4.91;84.38;99378.09;4998273;28;20061;-81
2024/01/18 07:09:17;;;;;;;17.23;13.98;;;;;;;4.04;84.18;99254.88;4980425;28;20526;-80
2024/01/18 07:11:44;;;;;;;15.73;12.82;;;;;;;4.93;84.62;99396.38;4990075;28;20049;-81
2024/01/18 07:14:11;;;;;;;17.38;13.98;;;;;;;5.01;84.31;99398.38;4998536;28;20053;-81
2024/01/18 07:16:40;;;;;;;18.85;12.63;;;;;;;4.70;84.20;99350.97;4980865;28;20143;-81
2024/01/18 07:19:06;;;;;;;14.52;11.10;;;;;;;5.02;83.45;99389.50;4982325;28;20126;-81
2024/01/18 07:21:33;;;;;;;16.85;12.25;;;;;;;5.08;83.29;99404.78;4976580;28;20267;-81
2024/01/18 07:24:01;;;;;;;11.80;9.70;;;;;;;4.97;82.81;99381.16;5001060;28;20157;-79
2024/01/18 07:26:28;;;;;;;13.48;10.45;;;;;;;5.06;83.07;99396.16;4998684;28;20050;-81
2024/01/18 07:28:58;;;;;;;11.98;9.68;;;;;;;5.03;83.00;99396.44;4983950;28;20443;-81
2024/01/18 07:31:24;;;;;;;12.85;10.13;;;;;;;5.10;82.78;99401.03;5006219;28;20081;-81
2024/01/18 07:33:51;;;;;;;13.18;10.40;;;;;;;5.13;83.40;99410.47;4976743;28;20057;-81
2024/01/18 07:36:18;;;;;;;10.18;8.93;;;;;;;4.87;82.43;99355.66;4971176;28;20053;-80
2024/01/18 07:38:46;;;;;;;11.50;9.15;;;;;;;5.20;82.36;99410.78;4985266;28;20120;-80
2024/01/18 07:41:13;;;;;;;10.85;8.80;;;;;;;5.03;82.11;99397.28;4985082;28;20503;-80
2024/01/18 07:43:39;;;;;;;11.50;7.93;;;;;;;5.08;82.22;99420.56;5002109;28;20327;-81
2024/01/18 07:46:09;;;;;;;10.30;8.88;;;;;;;5.14;82.23;99420.84;4997839;28;20057;-80
2024/01/18 07:48:36;;;;;;;9.48;8.15;;;;;;;5.11;82.09;99415.03;4978192;28;20053;-80
2024/01/18 07:51:03;;;;;;;8.80;7.93;;;;;;;5.13;82.03;99423.63;4998740;28;20136;-79
2024/01/18 07:53:30;;;;;;;9.77;8.10;;;;;;;5.12;81.96;99406.16;4988523;28;20054;-80
2024/01/18 07:55:57;;;;;;;13.68;8.50;;;;;;;5.32;81.62;99434.25;4984342;28;20056;-80
2024/01/18 07:58:27;;;;;;;11.30;8.32;;;;;;;4.59;80.91;99320.34;4984722;28;20562;-78
2024/01/18 08:00:54;;;;;;;9.35;8.45;;;;;;;5.14;81.35;99409.50;4983321;28;20056;-79
2024/01/18 08:03:20;;;;;;;10.07;7.75;;;;;;;5.12;82.36;99427.19;5013970;28;20064;-80
2024/01/18 08:05:47;;;;;;;9.57;8.50;;;;;;;5.15;82.11;99405.91;4986737;28;20049;-80
2024/01/18 08:08:14;;;;;;;10.38;8.43;;;;;;;5.21;81.31;99415.06;4978570;28;20045;-79
2024/01/18 08:10:47;;;;;;;9.25;7.63;;;;;;;5.26;81.47;99426.03;5006127;28;20050;-82
2024/01/18 08:13:14;;;;;;;8.90;8.00;;;;;;;5.12;82.04;99414.03;5024153;28;20042;-79
2024/01/18 08:15:44;;;;;;;9.05;8.15;;;;;;;5.22;82.56;99435.16;5036096;28;20721;-78
2024/01/18 08:18:11;;;;;;;10.25;8.85;;;;;;;5.35;82.19;99443.69;5010908;28;20041;-81
2024/01/18 08:20:37;;;;;;;8.60;7.70;;;;;;;5.35;81.98;99433.97;4997501;28;20053;-80
2024/01/18 08:23:04;;;;;;;9.48;8.20;;;;;;;5.50;80.87;99431.00;5003444;28;20331;-79
2024/01/18 08:25:32;;;;;;;9.65;8.75;;;;;;;4.80;81.04;99330.00;4970008;28;20046;-81
2024/01/18 08:28:01;;;;;;;9.02;8.05;;;;;;;5.10;80.73;99377.38;4977561;28;20452;-81
2024/01/18 08:30:27;;;;;;;10.07;8.80;;;;;;;5.32;80.98;99404.47;4982661;28;20388;-80
2024/01/18 08:32:55;;;;;;;9.88;8.88;;;;;;;5.18;81.34;99394.28;4978068;28;20049;-80
2024/01/18 08:35:23;;;;;;;9.25;8.35;;;;;;;5.50;81.59;99450.25;4965013;28;20069;-81
2024/01/18 08:37:56;;;;;;;9.35;8.32;;;;;;;5.50;81.41;99452.88;4966023;28;20064;-80
2024/01/18 08:40:34;;;;;;;10.02;9.00;;;;;;;5.60;81.65;99452.09;4985439;28;20463;-81
2024/01/18 08:43:02;;;;;;;10.48;9.45;;;;;;;5.52;80.93;99424.63;5007105;28;20096;-80
2024/01/18 08:45:36;;;;;;;12.07;9.90;;;;;;;5.39;80.51;99375.81;5003822;28;20451;-80
2024/01/18 08:48:04;;;;;;;10.43;9.30;;;;;;;5.56;80.95;99389.19;5017816;28;20439;-81
2024/01/18 08:50:34;;;;;;;11.27;10.02;;;;;;;5.68;81.79;99434.69;5010595;28;20350;-82
2024/01/18 08:53:10;;;;;;;11.00;9.75;;;;;;;5.88;80.50;99440.00;4986329;28;20045;-82
2024/01/18 08:55:41;;;;;;;11.27;10.13;;;;;;;4.95;80.01;99280.53;4995711;28;20064;-82
2024/01/18 08:58:11;;;;;;;10.50;9.23;;;;;;;5.49;79.86;99355.63;4997172;28;20372;-81
2024/01/18 09:00:42;;;;;;;10.10;9.05;;;;;;;5.68;79.29;99400.44;5000187;28;20057;-81
2024/01/18 09:03:15;;;;;;;10.80;9.70;;;;;;;5.96;79.98;99442.81;4955314;28;20498;-80
2024/01/18 09:05:47;;;;;;;9.05;8.15;;;;;;;5.89;79.80;99420.56;5006453;28;20049;-81
2024/01/18 09:08:14;;;;;;;9.75;8.57;;;;;;;6.16;78.49;99443.69;4980215;28;20060;-80
2024/01/18 09:10:41;;;;;;;9.85;8.60;;;;;;;6.15;79.25;99452.56;4980626;28;20053;-80
2024/01/18 09:13:08;;;;;;;9.88;8.68;;;;;;;5.83;78.13;99381.63;4978307;28;20108;-80
2024/01/18 09:15:36;;;;;;;10.68;9.15;;;;;;;6.24;78.29;99446.47;4975738;28;20057;-80
2024/01/18 09:18:03;;;;;;;12.75;9.43;;;;;;;6.18;78.89;99453.09;4999887;28;20053;-79
2024/01/18 09:20:30;;;;;;;10.30;8.90;;;;;;;6.27;78.82;99466.47;4984030;28;20057;-80
2024/01/18 09:22:57;;;;;;;10.88;9.70;;;;;;;6.01;78.39;99398.44;4996390;28;20121;-81
2024/01/18 09:25:46;;;;;;;11.77;9.98;;;;;;;6.39;78.35;99460.91;4993862;28;20049;-81
2024/01/18 09:28:24;;;;;;;11.48;9.40;;;;;;;6.43;77.86;99472.00;4937477;28;20049;-81
2024/01/18 09:31:03;;;;;;;10.68;9.52;;;;;;;6.55;77.47;99459.53;4932671;28;20232;-80
2024/01/18 09:33:33;;;;;;;11.43;9.32;;;;;;;6.37;77.96;99435.66;4998518;28;20430;-81
2024/01/18 09:36:01;;;;;;;11.93;9.82;;;;;;;6.49;77.83;99452.19;5000200;28;20462;-81
2024/01/18 09:38:30;;;;;;;10.00;8.98;;;;;;;5.69;77.66;99328.38;4989076;28;20396;-80
2024/01/18 09:41:03;;;;;;;10.20;9.20;;;;;;;6.68;77.32;99477.72;4966160;28;20106;-80
2024/01/18 09:43:36;;;;;;;12.88;9.38;;;;;;;6.74;77.47;99463.97;4973767;28;20069;-78
2024/01/18 09:46:05;;;;;;;10.60;9.57;;;;;;;6.93;76.84;99490.34;5009725;28;20131;-82
2024/01/18 09:48:39;;;;;;;11.02;9.20;;;;;;;7.02;76.09;99472.84;4982780;28;20408;-81
2024/01/18 09:51:06;;;;;;;9.73;8.82;;;;;;;7.12;75.71;99478.09;4992875;28;20041;-80
2024/01/18 09:53:35;;;;;;;9.55;8.65;;;;;;;7.09;75.69;99467.81;5003375;28;20495;-80
2024/01/18 09:56:21;;;;;;;9.52;8.63;;;;;;;7.23;75.60;99475.28;5002441;28;20053;-80
2024/01/18 09:58:49;;;;;;;11.45;8.15;;;;;;;7.23;75.41;99462.09;4978461;28;20457;-81
2024/01/18 10:01:20;;;;;;;9.65;8.65;;;;;;;7.27;74.61;99443.19;4985305;28;20056;-81
2024/01/18 10:03:49;;;;;;;9.52;8.35;;;;;;;7.50;73.25;99466.63;4997853;28;20447;-80
2024/01/18 10:06:19;;;;;;;10.23;8.43;;;;;;;7.21;74.11;99424.47;4986184;28;20119;-80
2024/01/18 10:08:51;;;;;;;9.50;8.50;;;;;;;7.53;73.74;99465.50;4979586;28;20482;-81
2024/01/18 10:11:19;;;;;;;9.43;8.52;;;;;;;7.62;72.98;99456.69;4976904;28;20057;-81
2024/01/18 10:13:54;;;;;;;8.80;7.70;;;;;;;7.58;73.52;99473.81;4974000;28;20416;-81
2024/01/18 10:16:35;;;;;;;8.20;7.38;;;;;;;7.49;73.34;99444.63;4985533;28;20060;-81
2024/01/18 10:19:07;;;;;;;9.07;8.25;;;;;;;7.04;73.51;99382.00;5003261;28;20042;-81
2024/01/18 10:21:39;;;;;;;8.65;7.75;;;;;;;7.48;74.11;99461.47;4987669;28;20269;-82
2024/01/18 10:24:12;;;;;;;9.30;7.38;;;;;;;7.55;73.78;99456.44;5014087;28;20451;-81
2024/01/18 10:26:40;;;;;;;9.05;8.18;;;;;;;7.53;73.50;99450.47;5009938;28;20187;-82
2024/01/18 10:29:10;;;;;;;9.93;7.70;;;;;;;7.53;73.14;99461.03;5009246;28;20361;-82
2024/01/18 10:31:42;;;;;;;9.90;8.90;;;;;;;7.51;73.31;99441.03;4989852;28;20303;-84
2024/01/18 10:34:11;;;;;;;8.82;7.95;;;;;;;7.58;73.79;99453.50;5001198;28;20578;-81
2024/01/18 10:36:40;;;;;;;9.73;8.82;;;;;;;7.34;73.91;99405.66;4987287;28;20241;-81
2024/01/18 10:39:17;;;;;;;10.07;9.10;;;;;;;7.40;73.90;99423.53;5002245;28;20581;-82
2024/01/18 10:41:45;;;;;;;8.90;7.70;;;;;;;7.53;73.95;99429.34;4985570;28;20057;-82
2024/01/18 10:44:15;;;;;;;9.15;8.27;;;;;;;7.52;74.60;99445.31;4986808;28;20309;-82
2024/01/18 10:46:47;;;;;;;9.52;8.60;;;;;;;7.65;74.55;99444.03;4980587;28;20549;-82
2024/01/18 10:49:14;;;;;;;;;;;;;;;7.69;74.48;99449.84;4978346;28;20052;-81
2024/01/18 10:51:54;;;;;;;8.88;7.97;;;;;;;7.61;74.65;99433.91;4985840;28;20085;-80
2024/01/18 10:54:22;;;;;;;11.63;9.50;;;;;;;7.69;74.62;99460.41;4987654;28;20049;-81
2024/01/18 10:57:04;;;;;;;9.52;8.63;;;;;;;7.47;74.59;99427.28;4988686;28;20459;-82
2024/01/18 10:59:31;;;;;;;9.00;8.10;;;;;;;7.77;75.26;99463.16;5002170;28;20045;-82
2024/01/18 11:02:01;;;;;;;9.43;8.50;;;;;;;7.82;74.76;99455.63;4993882;28;20128;-79
2024/01/18 11:04:30;;;;;;;9.82;8.85;;;;;;;7.84;74.18;99440.47;4964101;28;20800;-81
2024/01/18 11:06:58;;;;;;;9.85;8.85;;;;;;;7.27;73.61;99345.50;5007230;28;20563;-80
2024/01/18 11:09:29;;;;;;;11.77;8.90;;;;;;;7.00;73.73;99300.63;4985629;28;20086;-81
2024/01/18 11:11:57;;;;;;;9.07;8.18;;;;;;;7.60;73.76;99393.44;4994765;28;20147;-80
2024/01/18 11:14:28;;;;;;;9.32;8.32;;;;;;;8.07;72.95;99434.75;4980747;28;20054;-80
2024/01/18 11:17:19;;;;;;;10.45;8.45;;;;;;;8.29;72.77;99446.72;4990597;28;20514;-81
2024/01/18 11:19:49;;;;;;;9.52;8.43;;;;;;;8.19;72.76;99444.16;4968813;28;20049;-83
2024/01/18 11:22:27;;;;;;;9.57;8.68;;;;;;;8.15;73.58;99448.06;4989806;28;20064;-81
2024/01/18 11:25:03;;;;;;;11.07;8.55;;;;;;;8.09;73.33;99427.53;4967925;28;20074;-81
2024/01/18 11:27:41;;;;;;;9.32;8.43;;;;;;;7.74;74.03;99359.59;4970569;28;20046;-82
2024/01/18 11:30:33;;;;;;;8.75;7.90;;;;;;;7.44;73.17;99293.72;4984544;28;20202;-82
2024/01/18 11:33:03;;;;;;;10.38;9.32;;;;;;;8.16;73.22;99418.00;4980116;28;20049;-80
2024/01/18 11:35:32;;;;;;;10.88;9.75;;;;;;;8.13;73.22;99413.88;4986062;28;20411;-81
2024/01/18 11:38:21;;;;;;;12.70;9.52;;;;;;;8.12;74.47;99427.22;5009545;28;20368;-81
2024/01/18 11:40:55;;;;;;;10.98;9.73;;;;;;;8.17;73.71;99432.88;4988622;28;20099;-81